METAR AND TAF INFORMATION
METAR FOR NTAA
ADDS - METARS form results

(1325 UTC 25 January 2020)
Data provider http://aviationweather.gov/metar/data/
 
METAR text: NTAA 251300Z VRB02KT 9999 FEW020 26/22 Q1011 NOSIG
Conditions at: NTAA (TAHITI-FAAA POLY, WS) observed 1300 UTC 25 January 2020
Temperature: 26.0°C (79°F)
Dewpoint: 22.0°C (72°F) [RH = 79%]
Pressure (altimeter): 29.85 inches Hg (1011.0 mb)
Winds: variable direction winds at 2 MPH (2 knots; 1.0 m/s)
Visibility: 6 or more miles (10+ km)
Ceiling: at least 12,000 feet AGL
Clouds: few clouds at 2000 feet AGL
Weather: no significant weather observed at this time

METAR text: NTAA 251230Z VRB02KT 9999 FEW020 SCT100 26/22 Q1012 NOSIG
Conditions at: NTAA (TAHITI-FAAA POLY, WS) observed 1230 UTC 25 January 2020
Temperature: 26.0°C (79°F)
Dewpoint: 22.0°C (72°F) [RH = 79%]
Pressure (altimeter): 29.88 inches Hg (1012.0 mb)
Winds: variable direction winds at 2 MPH (2 knots; 1.0 m/s)
Visibility: 6 or more miles (10+ km)
Ceiling: at least 12,000 feet AGL
Clouds: few clouds at 2000 feet AGL
scattered clouds at 10000 feet AGL
Weather: no significant weather observed at this time

Forecast for: NTAA (TAHITI-FAAA POLY, WS)
Text: TAF NTAA 251100Z 2512/2618 VRB05KT 9999 FEW023 SCT050
Forecast period: 1200 UTC 25 January 2020 to 1800 UTC 26 January 2020
Forecast type: FROM: standard forecast or significant change
Winds: variable direction winds at 6 MPH (5 knots; 2.6 m/s)
Visibility: 6 or more miles 10+ km)
Ceiling: at least 12,000 feet AGL
Clouds: few clouds at 2300 feet AGL
scattered clouds at 5000 feet AGL
Weather: no significant weather forecast for this period
Text: PROB40
Forecast period: 2100 UTC 25 January 2020 to 0200 UTC 26 January 2020
Forecast type: TEMPORARY: The following changes expected for less than half the time period
Winds: from the NE (50 degrees) at 17 MPH (15 knots; 7.7 m/s)
Visibility: missing
Ceiling: unknown
Clouds: missing
Weather: no significant weather forecast for this period

 AIRPORT MAP

 RUNWAY INFORMATION
Runway 04 Runway length 11360 ft Runway width 148 ft
Runway elevation 5 ft Runway displaced threshold 1120 ft Runway heading 54
Runway 22 Runway length 11360 ft Runway width 148 ft
Runway elevation 5 ft Runway displaced threshold 390 ft Runway heading 234

 AIRPORT FREQUENCIES
Type APP Name APP Frequency 118.1 MHZ
Type ATIS Name ATIS Frequency 128.8 MHZ
Type GND Name GND Frequency 121.9 MHZ
Type TWR Name TWR Frequency 118.1 MHZ

 AIRPORT NEAR NAVIGATION AIDS
Type NDB Name Tahiti Faaa Frequency 305 KHZ
Type VOR-DME Name Tahiti Faaa Frequency 112900 KHZ